createdAt,value
2022-08-15T00:01:44.247Z,62.16
2022-08-15T00:06:50.159Z,62.15
2022-08-15T00:11:56.234Z,61.77
2022-08-15T00:17:09.873Z,61.47
2022-08-15T00:22:18.413Z,61.18
2022-08-15T00:27:25.818Z,61.00
2022-08-15T00:33:03.634Z,60.86
2022-08-15T00:38:13.277Z,60.57
2022-08-15T00:43:19.440Z,60.37
2022-08-15T00:48:40.224Z,60.12
2022-08-15T00:53:48.281Z,60.30
2022-08-15T00:58:51.425Z,59.87
2022-08-15T01:03:57.583Z,59.62
2022-08-15T01:09:02.152Z,59.55
2022-08-15T01:14:55.879Z,59.50
2022-08-15T01:20:12.298Z,59.36
2022-08-15T01:26:41.943Z,59.14
2022-08-15T01:31:04.435Z,59.23
2022-08-15T01:36:33.436Z,59.93
2022-08-15T01:41:42.373Z,62.07
2022-08-15T01:47:13.301Z,63.52
2022-08-15T01:52:59.212Z,65.12
2022-08-15T01:57:41.192Z,65.46
2022-08-15T02:02:47.167Z,65.71
2022-08-15T02:08:34.720Z,66.52
2022-08-15T02:13:15.921Z,66.06
2022-08-15T02:18:19.911Z,65.63
2022-08-15T02:23:26.300Z,65.86
2022-08-15T02:28:35.832Z,65.83
2022-08-15T02:33:43.205Z,65.36
2022-08-15T02:38:50.122Z,65.19
2022-08-15T02:43:52.930Z,65.20
2022-08-15T02:48:57.152Z,65.14
2022-08-15T02:54:36.040Z,65.72
2022-08-15T02:59:29.506Z,66.43
2022-08-15T03:04:35.530Z,66.99
2022-08-15T03:09:40.957Z,67.26
2022-08-15T03:15:01.317Z,66.59
2022-08-15T03:20:06.635Z,66.29
2022-08-15T03:25:11.085Z,66.39
2022-08-15T03:30:19.240Z,66.63
2022-08-15T03:35:29.916Z,66.43
2022-08-15T03:40:36.074Z,66.55
2022-08-15T03:45:42.220Z,66.28
2022-08-15T03:50:46.296Z,66.16
2022-08-15T03:55:54.224Z,66.75
2022-08-15T04:00:59.259Z,67.02
2022-08-15T04:06:07.615Z,66.85
2022-08-15T04:11:11.167Z,67.21
2022-08-15T04:17:01.933Z,67.33
2022-08-15T04:21:50.956Z,67.14
2022-08-15T04:26:56.321Z,67.09
2022-08-15T04:32:02.646Z,67.32
2022-08-15T04:37:06.814Z,67.85
2022-08-15T04:42:19.034Z,67.54
2022-08-15T04:47:24.624Z,68.12
2022-08-15T04:53:04.613Z,67.92
2022-08-15T04:58:42.483Z,67.78
2022-08-15T05:03:30.785Z,68.38
2022-08-15T05:08:35.934Z,67.65
2022-08-15T05:13:43.859Z,67.92
2022-08-15T05:18:55.646Z,67.91
2022-08-15T05:23:57.233Z,67.40
2022-08-15T05:29:03.360Z,67.02
2022-08-15T05:34:07.881Z,67.19
2022-08-15T05:39:26.172Z,67.02
2022-08-15T05:45:09.578Z,66.71
2022-08-15T05:50:28.517Z,66.07
2022-08-15T05:55:56.111Z,66.00
2022-08-15T06:01:30.341Z,65.16
2022-08-15T06:06:46.419Z,65.12
2022-08-15T06:11:54.133Z,65.54
2022-08-15T06:17:01.517Z,65.34
2022-08-15T06:22:26.086Z,65.55
2022-08-15T06:27:49.481Z,65.14
2022-08-15T06:33:17.256Z,64.67
2022-08-15T06:38:43.563Z,65.06
2022-08-15T06:43:46.416Z,65.33
2022-08-15T06:49:05.974Z,65.56
2022-08-15T06:54:34.860Z,65.95
2022-08-15T07:00:34.386Z,66.05
2022-08-15T07:05:55.151Z,66.09
2022-08-15T07:11:28.271Z,66.12
2022-08-15T07:17:01.434Z,67.47
2022-08-15T07:22:06.375Z,67.57
2022-08-15T07:27:17.355Z,67.49
2022-08-15T07:32:32.737Z,67.18
2022-08-15T07:37:39.810Z,67.84
2022-08-15T07:42:59.674Z,68.05
2022-08-15T07:48:25.785Z,67.87
2022-08-15T07:53:35.746Z,67.50
2022-08-15T07:58:40.645Z,67.58
2022-08-15T08:03:51.805Z,67.17
2022-08-15T08:09:13.093Z,66.43
2022-08-15T08:14:41.151Z,66.10
2022-08-15T08:20:05.213Z,66.42
2022-08-15T08:25:22.748Z,66.82
2022-08-15T08:30:58.611Z,67.45
2022-08-15T08:36:33.603Z,67.40
2022-08-15T08:42:26.057Z,66.93
2022-08-15T08:48:02.915Z,66.41
2022-08-15T08:53:33.672Z,65.66
2022-08-15T08:58:48.102Z,64.18
2022-08-15T09:03:57.670Z,63.87
2022-08-15T09:09:22.828Z,60.20
2022-08-15T09:14:35.000Z,58.17
2022-08-15T09:20:00.635Z,56.19
2022-08-15T09:25:07.188Z,55.03
2022-08-15T09:30:45.710Z,52.95
2022-08-15T09:35:57.633Z,52.60
2022-08-15T09:41:24.819Z,52.81
2022-08-15T09:47:01.659Z,50.91
2022-08-15T09:52:49.196Z,49.80
2022-08-15T09:57:55.659Z,49.19
2022-08-15T10:03:08.053Z,48.30
2022-08-15T10:08:14.477Z,49.37
2022-08-15T10:13:46.930Z,47.81
2022-08-15T10:18:52.168Z,47.78
2022-08-15T10:23:59.509Z,46.56
2022-08-15T10:29:03.677Z,45.91
2022-08-15T10:34:06.185Z,43.18
2022-08-15T10:39:49.497Z,40.94
2022-08-15T10:45:16.891Z,41.62
2022-08-15T10:50:31.569Z,41.25
2022-08-15T10:55:57.317Z,41.51
2022-08-15T11:01:07.818Z,41.02
2022-08-15T11:06:14.763Z,41.19
2022-08-15T11:11:20.478Z,40.70
2022-08-15T11:16:37.934Z,40.24
2022-08-15T11:21:46.313Z,40.48
2022-08-15T11:27:31.177Z,39.62
2022-08-15T11:32:38.023Z,39.49
2022-08-15T11:37:44.318Z,39.63
2022-08-15T11:42:58.176Z,39.87
2022-08-15T11:48:51.106Z,40.07
2022-08-15T11:54:11.384Z,39.36
2022-08-15T11:59:22.528Z,38.50
2022-08-15T12:04:39.734Z,38.79
2022-08-15T12:10:04.591Z,39.56
2022-08-15T12:15:32.179Z,39.77
2022-08-15T12:21:01.755Z,39.52
2022-08-15T12:26:40.575Z,38.95
2022-08-15T12:31:49.489Z,38.97
2022-08-15T12:37:04.819Z,38.69
2022-08-15T12:42:47.356Z,38.88
2022-08-15T12:48:07.419Z,39.31
2022-08-15T12:53:18.937Z,39.54
2022-08-15T12:58:33.521Z,39.82
2022-08-15T13:09:15.032Z,40.55
2022-08-15T13:14:30.450Z,41.27
2022-08-15T13:19:58.841Z,45.19
2022-08-15T13:25:02.313Z,49.37
2022-08-15T13:30:20.146Z,51.02
2022-08-15T13:35:59.194Z,52.52
2022-08-15T13:48:15.399Z,62.18
2022-08-15T13:53:39.435Z,64.76
2022-08-15T13:58:58.677Z,66.84
2022-08-15T14:04:25.425Z,68.00
2022-08-15T14:10:02.542Z,70.00
2022-08-15T14:16:42.024Z,71.62
2022-08-15T15:11:30.765Z,76.96
2022-08-15T15:17:01.375Z,75.93
2022-08-15T15:22:33.358Z,74.86
2022-08-15T15:27:59.714Z,75.13
2022-08-15T15:33:23.627Z,74.80
2022-08-15T15:38:58.884Z,72.72
2022-08-15T15:44:49.983Z,71.31
2022-08-15T15:49:52.275Z,70.57
2022-08-15T15:55:00.276Z,71.11
2022-08-15T16:07:00.928Z,71.11
2022-08-15T16:24:49.522Z,71.01
2022-08-15T16:31:19.059Z,72.62
2022-08-15T16:36:29.862Z,72.57
2022-08-15T16:42:49.640Z,72.76
2022-08-15T16:48:36.999Z,73.43
2022-08-15T17:21:08.825Z,75.07
2022-08-15T17:32:19.376Z,75.97
2022-08-15T17:37:50.636Z,75.66
2022-08-15T17:49:18.585Z,78.52
2022-08-15T17:54:52.756Z,80.03
2022-08-15T18:07:03.986Z,83.08
2022-08-15T18:12:18.430Z,83.30
2022-08-15T18:17:32.395Z,83.79
2022-08-15T18:22:35.544Z,84.44
2022-08-15T18:27:55.949Z,84.64
2022-08-15T18:38:30.821Z,85.16
2022-08-15T18:44:34.025Z,85.85
2022-08-15T18:58:16.397Z,86.88
2022-08-15T19:03:50.183Z,87.02
2022-08-15T19:24:05.445Z,87.46
2022-08-15T19:29:19.401Z,87.52
2022-08-15T19:34:29.722Z,87.93
2022-08-15T19:40:06.037Z,88.29
2022-08-15T19:45:28.186Z,88.52
2022-08-15T19:50:53.565Z,88.63
2022-08-15T19:56:29.022Z,88.86
2022-08-15T20:01:49.027Z,88.84
2022-08-15T20:07:11.144Z,88.39
2022-08-15T20:13:12.691Z,88.18
2022-08-15T20:18:35.120Z,88.20
2022-08-15T20:24:19.677Z,87.94
2022-08-15T20:29:39.097Z,87.52
2022-08-15T20:35:13.134Z,87.66
2022-08-15T20:40:21.269Z,87.82
2022-08-15T20:45:31.969Z,88.22
2022-08-15T20:50:34.799Z,88.13
2022-08-15T20:55:44.204Z,88.13
2022-08-15T21:01:33.474Z,88.55
2022-08-15T21:06:39.862Z,88.53
2022-08-15T21:11:51.316Z,88.78
2022-08-15T21:16:59.038Z,88.71
2022-08-15T21:22:48.667Z,88.65
2022-08-15T21:28:02.166Z,88.81
2022-08-15T21:33:10.259Z,88.60
2022-08-15T21:38:50.506Z,88.48
2022-08-15T21:44:50.874Z,88.54
2022-08-15T21:49:57.028Z,88.95
2022-08-15T21:55:03.219Z,89.20
2022-08-15T22:00:31.857Z,89.13
2022-08-15T22:05:39.107Z,88.98
2022-08-15T22:10:44.813Z,89.29
2022-08-15T22:15:50.306Z,89.00
2022-08-15T22:20:52.633Z,88.98
2022-08-15T22:25:58.659Z,88.96
2022-08-15T22:31:15.792Z,89.30
2022-08-15T22:36:18.233Z,89.63
2022-08-15T22:41:28.397Z,89.97
2022-08-15T22:46:41.420Z,90.18
2022-08-15T22:51:50.624Z,90.13
2022-08-15T22:56:56.985Z,90.36
2022-08-15T23:02:06.101Z,90.41
2022-08-15T23:07:20.995Z,90.16
2022-08-15T23:12:33.967Z,90.46
2022-08-15T23:18:09.307Z,90.27
2022-08-15T23:23:29.219Z,90.47
2022-08-15T23:28:56.603Z,90.22
2022-08-15T23:34:01.841Z,90.79
2022-08-15T23:39:07.761Z,91.04
2022-08-15T23:44:09.434Z,91.17
2022-08-15T23:49:20.110Z,91.47
2022-08-15T23:54:32.940Z,91.57
2022-08-15T23:59:41.954Z,91.54
